Delta Ocean — SVAU9 — position and weather

sailwx.info

Track history (hours):
 
Tides and Currents Weather Stations Pressure Air Temp Water Temp Dewpoint Dewpoint Depression Visibility Wind Speed Wind Dir Waves Ship Positions

Delta Ocean

Last reported at 2016-Sep-26 19:28 UTC. Time now 2016-Sep-30 18:41 UTC.
Position N 27°31' W 015°15'.

Length 274 m; draft 9 m.

Type: Tanker. MMSI: 240958000.

Date/timePositionNaut miles runAvg speedWind from/ knotsBaromVisibWave heightAir tempDewpointWater temp
2016-Sep-26 19:28N 27°31' W 015°15'5413.8
2016-Sep-26 15:34N 28°22' W 014°54'2713.7
2016-Sep-26 13:33N 28°45' W 014°36'2813.5
2016-Sep-26 11:28N 29°08' W 014°18'4013.6
2016-Sep-26 08:33N 29°38' W 013°49'14913.5
2016-Sep-25 21:33N 31°21' W 011°44'  
2016-Sep-22 20:28N 36°20' W 003°01'10412.9
2016-Sep-22 12:21N 36°50' W 000°57'10513.4
2016-Sep-22 04:33N 37°30' E 001°05'2113.9
2016-Sep-22 03:03N 37°38' E 001°29'3514.0
2016-Sep-22 00:31N 37°52' E 002°11'1814.3
2016-Sep-21 23:17N 37°58' E 002°31'1113.9
2016-Sep-21 22:29N 38°02' E 002°44'  
Track history (hours):
 
Tides and Currents Weather Stations Pressure Air Temp Water Temp Dewpoint Dewpoint Depression Visibility Wind Speed Wind Dir Waves Ship Positions

Delta Ocean

Last reported at 2016-Sep-26 19:28 UTC. Time now 2016-Sep-30 18:41 UTC.
Position N 27°31' W 015°15'.

Length 274 m; draft 9 m.

Type: Tanker. MMSI: 240958000.

Date/timePositionNaut miles runAvg speedWind from/ knotsBaromVisibWave heightAir tempDewpointWater temp
2016-Sep-26 19:28N 27°31' W 015°15'5413.8
2016-Sep-26 15:34N 28°22' W 014°54'2713.7
2016-Sep-26 13:33N 28°45' W 014°36'2813.5
2016-Sep-26 11:28N 29°08' W 014°18'4013.6
2016-Sep-26 08:33N 29°38' W 013°49'14913.5
2016-Sep-25 21:33N 31°21' W 011°44'  
2016-Sep-22 20:28N 36°20' W 003°01'10412.9
2016-Sep-22 12:21N 36°50' W 000°57'10513.4
2016-Sep-22 04:33N 37°30' E 001°05'2113.9
2016-Sep-22 03:03N 37°38' E 001°29'3514.0
2016-Sep-22 00:31N 37°52' E 002°11'1814.3
2016-Sep-21 23:17N 37°58' E 002°31'1113.9
2016-Sep-21 22:29N 38°02' E 002°44'  

Dump ship's entire track history